Time;durP1;ratioP1;P1;durP2;ratioP2;P2;SDS_P1;SDS_P2;PMS_P1;PMS_P2;Temp;Humidity;BMP_temperature;BMP_pressure;BME280_temperature;BME280_humidity;BME280_pressure;Samples;Min_cycle;Max_cycle;Signal;HPM_P1;HPM_P2
2021/06/10 00:00:03;;;;;;;16.77;9.88;;;;;;;16.17;73.62;101818.38;5016197;28;20036;-82
2021/06/10 00:02:28;;;;;;;13.40;9.30;;;;;;;16.26;73.54;101818.75;5016499;28;20113;-82
2021/06/10 00:04:54;;;;;;;16.42;9.63;;;;;;;16.31;72.80;101813.91;5016616;28;20061;-82
2021/06/10 00:07:19;;;;;;;15.82;9.70;;;;;;;16.27;74.59;101810.53;5016199;28;20065;-81
2021/06/10 00:09:46;;;;;;;14.75;10.05;;;;;;;16.38;73.99;101826.06;5015796;28;20650;-82
2021/06/10 00:12:12;;;;;;;19.45;10.05;;;;;;;16.38;73.81;101818.84;5016609;28;20082;-82
2021/06/10 00:14:38;;;;;;;14.88;10.55;;;;;;;16.41;73.21;101820.47;5016295;28;20030;-82
2021/06/10 00:17:03;;;;;;;16.77;9.77;;;;;;;16.41;73.03;101802.34;5016198;28;20117;-82
2021/06/10 00:19:30;;;;;;;13.70;9.60;;;;;;;16.41;73.32;101806.91;5015856;28;20068;-86
2021/06/10 00:21:55;;;;;;;13.07;10.30;;;;;;;16.44;74.01;101819.41;5015865;28;20385;-82
2021/06/10 00:24:21;;;;;;;14.25;9.95;;;;;;;16.42;74.03;101808.63;4999531;28;20095;-81
2021/06/10 00:26:46;;;;;;;12.07;9.43;;;;;;;16.39;74.48;101819.69;4995649;28;20022;-85
2021/06/10 00:29:12;;;;;;;14.65;9.27;;;;;;;16.34;75.15;101816.44;5015641;28;20033;-82
2021/06/10 00:31:37;;;;;;;14.57;9.20;;;;;;;16.26;75.68;101808.78;5015683;28;20469;-85
2021/06/10 00:34:03;;;;;;;11.68;9.07;;;;;;;16.23;76.40;101813.53;5013972;28;20037;-81
2021/06/10 00:36:29;;;;;;;13.57;10.30;;;;;;;16.18;76.21;101812.00;4990050;28;20030;-81
2021/06/10 00:38:54;;;;;;;12.75;9.60;;;;;;;16.06;76.61;101799.25;4999470;28;20053;-82
2021/06/10 00:41:20;;;;;;;14.20;9.23;;;;;;;16.02;77.19;101803.13;5016008;28;20057;-83
2021/06/10 00:43:47;;;;;;;12.63;9.93;;;;;;;15.98;76.50;101804.28;5014581;28;20026;-84
2021/06/10 00:46:12;;;;;;;12.32;10.13;;;;;;;15.91;76.58;101794.81;4999130;28;20037;-82
2021/06/10 00:48:38;;;;;;;16.40;10.52;;;;;;;15.84;76.38;101793.47;5015570;28;20397;-82
2021/06/10 00:51:04;;;;;;;15.60;11.40;;;;;;;15.80;76.39;101791.91;4999612;28;20018;-83
2021/06/10 00:53:29;;;;;;;23.23;14.27;;;;;;;15.70;74.55;101787.06;5016042;28;20038;-82
2021/06/10 00:55:57;;;;;;;17.38;12.48;;;;;;;15.73;74.84;101797.75;5016005;28;20029;-83
2021/06/10 00:58:22;;;;;;;16.00;12.48;;;;;;;15.63;74.78;101784.81;5015454;28;20457;-83
2021/06/10 01:00:48;;;;;;;15.80;11.40;;;;;;;15.52;77.09;101782.78;5015745;28;20057;-83
2021/06/10 01:03:14;;;;;;;14.63;11.45;;;;;;;15.48;77.21;101789.34;4999471;28;20022;-83
2021/06/10 01:05:41;;;;;;;18.48;11.13;;;;;;;15.34;78.39;101791.09;5015256;28;20076;-82
2021/06/10 01:08:39;;;;;;;13.55;10.82;;;;;;;15.23;78.30;101787.31;4999495;28;20030;-83
2021/06/10 01:11:31;;;;;;;18.87;13.33;;;;;;;15.15;78.77;101802.19;4992141;28;20048;-83
2021/06/10 01:14:03;;;;;;;15.70;12.32;;;;;;;15.05;78.91;101792.88;4979498;28;20022;-82
2021/06/10 01:16:30;;;;;;;16.75;12.73;;;;;;;14.92;79.38;101791.88;4996959;28;20038;-83
2021/06/10 01:18:56;;;;;;;;;;;;;;;14.84;80.35;101791.47;4996454;28;20026;-83
2021/06/10 01:21:23;;;;;;;16.48;11.88;;;;;;;14.66;80.36;101782.59;4995740;28;19918;-82
2021/06/10 01:24:25;;;;;;;16.60;12.38;;;;;;;14.68;79.66;101796.91;4996861;28;20022;-83
2021/06/10 01:26:56;;;;;;;20.45;13.13;;;;;;;14.60;79.83;101789.25;5014865;28;20065;-82
2021/06/10 01:29:22;;;;;;;15.75;12.23;;;;;;;14.51;80.96;101787.06;5014816;28;20037;-82
2021/06/10 01:31:48;;;;;;;13.90;11.18;;;;;;;14.45;81.56;101790.13;4999159;28;20512;-82
2021/06/10 01:34:14;;;;;;;20.58;14.13;;;;;;;14.41;80.98;101786.75;5015116;28;20039;-84
2021/06/10 01:36:43;;;;;;;16.92;12.60;;;;;;;14.36;81.01;101783.41;5015115;28;20076;-83
2021/06/10 01:39:10;;;;;;;15.32;12.02;;;;;;;14.35;80.71;101784.38;5014717;28;20030;-84
2021/06/10 01:41:37;;;;;;;20.08;13.73;;;;;;;14.25;81.10;101772.34;5014217;28;20054;-82
2021/06/10 01:44:03;;;;;;;18.23;13.77;;;;;;;14.25;82.03;101786.75;4995434;28;20022;-82
2021/06/10 01:46:30;;;;;;;20.88;13.85;;;;;;;14.19;82.31;101783.53;4995471;28;20475;-83
2021/06/10 01:48:56;;;;;;;17.10;13.65;;;;;;;14.11;82.73;101773.16;4995493;28;20468;-82
2021/06/10 01:51:24;;;;;;;17.77;13.63;;;;;;;14.08;81.90;101778.72;4995191;28;20038;-82
2021/06/10 01:53:51;;;;;;;17.05;12.88;;;;;;;14.06;81.19;101776.13;4995567;28;20275;-83
2021/06/10 01:56:17;;;;;;;18.50;13.73;;;;;;;14.02;82.64;101771.84;4995102;28;20018;-82
2021/06/10 01:58:43;;;;;;;17.50;13.63;;;;;;;13.96;82.52;101764.06;4995088;28;20038;-82
2021/06/10 02:01:09;;;;;;;18.80;13.73;;;;;;;13.88;82.43;101763.66;4995049;28;20516;-82
2021/06/10 02:03:35;;;;;;;18.60;13.82;;;;;;;13.85;83.41;101770.09;5005527;28;20057;-82
2021/06/10 02:06:01;;;;;;;18.30;14.27;;;;;;;13.79;82.89;101765.03;5014523;28;20540;-83
2021/06/10 02:08:27;;;;;;;19.02;14.35;;;;;;;13.74;82.41;101759.00;5014868;28;20018;-82
2021/06/10 02:10:55;;;;;;;21.83;14.25;;;;;;;13.65;83.15;101768.50;5014458;28;20616;-82
2021/06/10 02:13:28;;;;;;;20.73;15.98;;;;;;;13.56;83.58;101760.91;5014732;28;20056;-86
2021/06/10 02:15:56;;;;;;;18.42;14.65;;;;;;;13.50;84.59;101768.47;5013482;28;20088;-82
2021/06/10 02:18:22;;;;;;;18.27;14.43;;;;;;;13.41;84.25;101757.22;5013974;28;20109;-85
2021/06/10 02:20:47;;;;;;;17.20;13.77;;;;;;;13.40;83.85;101754.59;5014046;28;20113;-83
2021/06/10 02:23:13;;;;;;;21.73;15.23;;;;;;;13.36;84.60;101753.00;4997867;28;20086;-82
2021/06/10 02:25:38;;;;;;;22.83;14.93;;;;;;;13.31;84.23;101757.78;5014255;28;20018;-86
2021/06/10 02:28:04;;;;;;;20.02;15.00;;;;;;;13.31;83.61;101757.78;5013778;28;20095;-82
2021/06/10 02:30:31;;;;;;;22.52;16.30;;;;;;;13.24;84.48;101752.66;5014075;28;20033;-82
2021/06/10 02:32:56;;;;;;;21.13;14.27;;;;;;;13.21;85.21;101760.06;4997831;28;20069;-82
2021/06/10 02:35:21;;;;;;;20.30;15.45;;;;;;;13.17;84.76;101748.56;5014011;28;20030;-82
2021/06/10 02:37:50;;;;;;;19.40;13.85;;;;;;;13.16;84.20;101754.03;5013979;28;20061;-82
2021/06/10 02:40:20;;;;;;;17.75;13.77;;;;;;;13.16;84.10;101756.72;5013883;28;20056;-83
2021/06/10 02:42:47;;;;;;;20.55;15.32;;;;;;;13.04;84.85;101736.66;5013784;28;20072;-82
2021/06/10 02:45:16;;;;;;;23.85;15.23;;;;;;;13.07;84.14;101749.16;5014244;28;20025;-82
2021/06/10 02:47:42;;;;;;;19.33;15.80;;;;;;;13.01;85.07;101751.19;5014186;28;20042;-82
2021/06/10 02:50:11;;;;;;;22.50;14.60;;;;;;;12.99;84.29;101746.84;5014080;28;20032;-82
2021/06/10 02:52:41;;;;;;;22.35;14.73;;;;;;;12.97;84.90;101751.44;5013694;28;20081;-86
2021/06/10 02:55:07;;;;;;;19.67;14.65;;;;;;;12.90;84.30;101748.19;5014289;28;20465;-82
2021/06/10 02:57:32;;;;;;;17.08;13.13;;;;;;;12.90;85.09;101750.00;4997191;28;20592;-82
2021/06/10 02:59:58;;;;;;;18.52;14.05;;;;;;;12.88;84.33;101750.13;5013675;28;20118;-84
2021/06/10 03:02:24;;;;;;;16.92;13.52;;;;;;;12.81;84.62;101738.78;5013530;28;20086;-82
2021/06/10 03:04:49;;;;;;;21.23;13.98;;;;;;;12.79;85.54;101745.19;5013436;28;20083;-81
2021/06/10 03:07:17;;;;;;;17.00;13.73;;;;;;;12.79;85.35;101746.06;4996759;28;20411;-82
2021/06/10 03:09:44;;;;;;;16.83;13.10;;;;;;;12.76;85.65;101748.91;5013134;28;20111;-82
2021/06/10 03:12:10;;;;;;;19.38;14.02;;;;;;;12.77;85.73;101757.88;5012977;28;20386;-82
2021/06/10 03:14:40;;;;;;;18.45;13.52;;;;;;;12.73;85.07;101749.06;5013205;28;20033;-82
2021/06/10 03:17:06;;;;;;;18.58;13.75;;;;;;;12.78;85.14;101760.47;5013135;28;20469;-82
2021/06/10 03:19:32;;;;;;;16.60;12.82;;;;;;;12.79;85.45;101756.00;4996692;28;20041;-82
2021/06/10 03:21:57;;;;;;;20.05;13.18;;;;;;;12.80;84.91;101757.72;4996662;28;20026;-82
2021/06/10 03:24:23;;;;;;;20.42;12.20;;;;;;;12.78;84.11;101754.22;5013002;28;20022;-82
2021/06/10 03:26:48;;;;;;;16.83;12.32;;;;;;;12.79;85.43;101754.16;4996657;28;20091;-85
2021/06/10 03:29:13;;;;;;;15.50;12.35;;;;;;;12.80;84.18;101747.78;5013032;28;20382;-82
2021/06/10 03:31:40;;;;;;;20.17;12.73;;;;;;;12.85;84.89;101751.13;4996594;28;20030;-84
2021/06/10 03:34:05;;;;;;;16.20;11.77;;;;;;;12.90;84.57;101750.00;5013036;28;20018;-82
2021/06/10 03:36:31;;;;;;;17.50;11.68;;;;;;;12.93;84.25;101753.44;4996730;28;20084;-81
2021/06/10 03:38:58;;;;;;;20.92;12.38;;;;;;;12.97;85.22;101756.84;5011469;28;20108;-82
2021/06/10 03:41:23;;;;;;;14.70;11.00;;;;;;;13.00;84.34;101754.00;5013067;28;20430;-82
2021/06/10 03:43:50;;;;;;;13.73;10.43;;;;;;;12.96;84.78;101736.22;4996703;28;20033;-83
2021/06/10 03:46:15;;;;;;;15.45;11.13;;;;;;;13.10;83.51;101746.28;5013099;28;20029;-83
2021/06/10 03:48:41;;;;;;;17.27;12.15;;;;;;;13.15;84.51;101745.06;5012915;28;20084;-82
2021/06/10 03:51:14;;;;;;;13.45;10.45;;;;;;;13.21;83.21;101750.16;5012990;28;20050;-82
2021/06/10 03:53:42;;;;;;;14.93;10.82;;;;;;;13.30;83.13;101747.94;4996635;28;20029;-82
2021/06/10 03:56:07;;;;;;;13.80;11.07;;;;;;;13.34;83.73;101752.22;4996526;28;20451;-82
2021/06/10 03:58:33;;;;;;;17.08;12.23;;;;;;;13.40;83.51;101751.88;5012774;28;20036;-82
2021/06/10 04:00:58;;;;;;;19.42;11.93;;;;;;;13.53;83.85;101752.06;5012677;28;20088;-82
2021/06/10 04:03:24;;;;;;;21.65;11.95;;;;;;;13.55;83.44;101745.63;4996230;28;20130;-82
2021/06/10 04:05:49;;;;;;;15.10;10.73;;;;;;;13.65;83.22;101749.59;4996565;28;20026;-83
2021/06/10 04:08:15;;;;;;;16.40;10.63;;;;;;;13.80;83.42;101749.69;5012812;28;20018;-82
2021/06/10 04:10:40;;;;;;;13.90;10.98;;;;;;;13.89;83.11;101757.28;5012828;28;20378;-82
2021/06/10 04:13:06;;;;;;;16.25;9.70;;;;;;;13.91;82.85;101733.75;5012935;28;20026;-82
2021/06/10 04:15:31;;;;;;;13.25;9.57;;;;;;;14.04;83.04;101745.59;5012816;28;20022;-82
2021/06/10 04:17:56;;;;;;;14.93;9.85;;;;;;;14.18;82.06;101747.53;5013026;28;20068;-83
2021/06/10 04:20:22;;;;;;;15.93;10.02;;;;;;;14.29;82.78;101757.69;5012835;28;20077;-82
2021/06/10 04:22:47;;;;;;;16.70;9.80;;;;;;;14.37;82.24;101749.16;5010722;28;20033;-82
2021/06/10 04:25:13;;;;;;;12.48;9.10;;;;;;;14.46;82.55;101754.88;4984946;28;20025;-82
2021/06/10 04:27:38;;;;;;;11.63;8.75;;;;;;;14.53;81.13;101745.44;5012615;28;20030;-82
2021/06/10 04:30:12;;;;;;;12.20;9.02;;;;;;;14.58;79.41;101742.50;5012729;28;20021;-82
2021/06/10 04:32:37;;;;;;;14.73;9.13;;;;;;;14.68;80.82;101748.22;5012945;28;20034;-82
2021/06/10 04:35:07;;;;;;;13.35;8.57;;;;;;;14.76;80.47;101753.16;5012830;28;20488;-82
2021/06/10 04:37:32;;;;;;;13.20;9.00;;;;;;;14.75;79.42;101743.31;4977202;28;20034;-83
2021/06/10 04:39:58;;;;;;;12.65;9.50;;;;;;;14.82;81.41;101752.81;4995135;28;20497;-82
2021/06/10 04:42:23;;;;;;;15.32;8.82;;;;;;;14.85;81.26;101747.22;4996534;28;20026;-83
2021/06/10 04:44:49;;;;;;;14.32;9.27;;;;;;;14.92;80.87;101763.00;5009546;28;20057;-82
2021/06/10 04:47:14;;;;;;;12.82;8.35;;;;;;;14.91;81.52;101755.81;5016021;28;20034;-83
2021/06/10 04:49:40;;;;;;;11.63;9.02;;;;;;;14.95;81.46;101756.53;5015963;28;20076;-83
2021/06/10 04:52:05;;;;;;;14.30;9.00;;;;;;;15.02;80.56;101759.72;5015983;28;20525;-82
2021/06/10 04:54:33;;;;;;;12.52;8.68;;;;;;;15.09;80.67;101758.41;4999416;28;20247;-83
2021/06/10 04:56:59;;;;;;;14.13;8.80;;;;;;;15.21;80.13;101763.03;5015915;28;20480;-82
2021/06/10 04:59:24;;;;;;;16.55;8.88;;;;;;;15.24;79.83;101753.84;5015816;28;20037;-85
2021/06/10 05:01:49;;;;;;;11.90;8.07;;;;;;;15.38;80.13;101756.56;5015532;28;20033;-83
2021/06/10 05:04:15;;;;;;;12.35;8.70;;;;;;;15.57;78.61;101764.41;5015439;28;20026;-83
2021/06/10 05:06:40;;;;;;;13.45;8.40;;;;;;;15.80;77.38;101756.69;5015530;28;20025;-82
2021/06/10 05:09:06;;;;;;;14.45;9.38;;;;;;;15.96;72.58;101758.28;4995725;28;20034;-83
2021/06/10 05:11:31;;;;;;;14.40;8.82;;;;;;;16.27;70.01;101763.53;5007551;28;20029;-85
2021/06/10 05:13:56;;;;;;;13.65;7.65;;;;;;;16.44;70.84;101751.59;4999166;28;20029;-82
2021/06/10 05:16:25;;;;;;;12.98;9.27;;;;;;;16.65;66.98;101755.56;5016290;28;20121;-82
2021/06/10 05:18:51;;;;;;;13.70;8.00;;;;;;;16.97;67.47;101755.22;5014870;28;20037;-83
2021/06/10 05:21:16;;;;;;;13.20;9.48;;;;;;;17.16;64.66;101765.66;5015333;28;20022;-86
2021/06/10 05:23:42;;;;;;;12.25;8.63;;;;;;;17.21;64.32;101745.34;4998850;28;20026;-84
2021/06/10 05:26:07;;;;;;;15.90;9.05;;;;;;;17.44;64.51;101753.72;5015155;28;20025;-83
2021/06/10 05:28:35;;;;;;;16.05;9.68;;;;;;;17.58;62.69;101745.44;5015388;28;20076;-84
2021/06/10 05:31:02;;;;;;;13.55;9.65;;;;;;;17.75;61.19;101743.34;5015373;28;20026;-83
2021/06/10 05:33:27;;;;;;;17.98;9.35;;;;;;;17.83;63.76;101749.13;5015181;28;20075;-86
2021/06/10 05:35:53;;;;;;;16.70;10.27;;;;;;;18.05;62.51;101745.69;5015408;28;20465;-88
2021/06/10 05:38:18;;;;;;;13.93;8.88;;;;;;;18.21;61.78;101745.41;4998530;28;20034;-84
2021/06/10 05:40:44;;;;;;;16.15;9.45;;;;;;;18.32;59.84;101744.63;5014581;28;20045;-77
2021/06/10 05:43:09;;;;;;;14.60;9.20;;;;;;;18.36;59.43;101740.69;5013923;28;20036;-79
2021/06/10 05:45:35;;;;;;;11.48;8.23;;;;;;;18.56;60.52;101731.00;5014068;28;20072;-87
2021/06/10 05:48:00;;;;;;;11.57;8.50;;;;;;;18.94;58.43;101744.41;5014587;28;20033;-79
2021/06/10 05:50:26;;;;;;;14.10;9.18;;;;;;;19.61;54.26;101756.34;5012541;28;20029;-79
2021/06/10 05:52:51;;;;;;;11.52;9.25;;;;;;;19.91;52.82;101751.19;5013926;28;20071;-85
2021/06/10 05:55:16;;;;;;;14.13;8.43;;;;;;;20.22;53.10;101754.09;5013727;28;20105;-79
2021/06/10 05:57:42;;;;;;;11.85;7.57;;;;;;;20.43;53.38;101750.56;4998308;28;20137;-81
2021/06/10 06:00:08;;;;;;;20.65;8.85;;;;;;;20.47;51.97;101747.44;4997533;28;20037;-83
2021/06/10 06:02:33;;;;;;;11.53;7.23;;;;;;;20.71;50.19;101736.31;4997731;28;20050;-77
2021/06/10 06:04:59;;;;;;;14.27;6.55;;;;;;;20.99;51.65;101737.53;5013876;28;20060;-79
2021/06/10 06:07:24;;;;;;;15.05;6.32;;;;;;;20.91;51.61;101745.53;5013492;28;20029;-80
2021/06/10 06:09:49;;;;;;;11.50;6.50;;;;;;;20.99;49.09;101744.88;5013549;28;20042;-77
2021/06/10 06:12:15;;;;;;;11.50;6.07;;;;;;;21.15;50.43;101747.13;5013357;28;20026;-79
2021/06/10 06:14:44;;;;;;;10.17;5.87;;;;;;;21.30;51.04;101751.22;5013983;28;20076;-81
2021/06/10 06:17:12;;;;;;;11.85;6.15;;;;;;;21.33;48.72;101747.38;5013193;28;20264;-82
2021/06/10 06:19:38;;;;;;;9.95;6.35;;;;;;;21.46;48.65;101744.44;4997168;28;20025;-81
2021/06/10 06:22:04;;;;;;;13.77;8.57;;;;;;;21.76;48.08;101749.03;5013070;28;20033;-79
2021/06/10 06:24:31;;;;;;;8.60;5.28;;;;;;;22.10;46.39;101749.59;5013589;28;20380;-90
2021/06/10 06:26:57;;;;;;;8.88;4.65;;;;;;;22.64;44.87;101747.38;5013714;28;20079;-83
2021/06/10 06:29:23;;;;;;;7.75;4.40;;;;;;;22.86;43.18;101744.34;4997418;28;20033;-80
2021/06/10 06:31:48;;;;;;;8.90;4.15;;;;;;;23.18;41.73;101756.84;5013891;28;20033;-90
2021/06/10 06:34:14;;;;;;;8.67;3.50;;;;;;;23.61;43.72;101751.81;5013618;28;20466;-82
2021/06/10 06:36:39;;;;;;;7.75;4.40;;;;;;;23.98;39.64;101735.34;5013040;28;20454;-83
2021/06/10 06:39:06;;;;;;;8.27;4.50;;;;;;;24.28;41.02;101766.25;5009882;28;20168;-80
2021/06/10 06:41:31;;;;;;;8.10;4.13;;;;;;;24.77;39.78;101766.75;5009207;28;20041;-81
2021/06/10 06:43:57;;;;;;;10.57;5.40;;;;;;;25.15;37.07;101761.91;5010392;28;20025;-83
2021/06/10 06:46:22;;;;;;;7.80;5.70;;;;;;;25.08;37.36;101769.06;5010439;28;20101;-81
2021/06/10 06:48:48;;;;;;;8.70;5.10;;;;;;;24.98;36.68;101770.03;5010867;28;20045;-81
2021/06/10 06:51:13;;;;;;;9.03;4.60;;;;;;;25.27;37.27;101765.28;5008979;28;20030;-81
2021/06/10 06:53:38;;;;;;;8.20;4.30;;;;;;;25.34;37.83;101770.00;4983312;28;20091;-80
2021/06/10 06:56:04;;;;;;;9.47;4.33;;;;;;;26.05;35.10;101758.84;4994602;28;20065;-82
2021/06/10 06:58:30;;;;;;;9.77;5.00;;;;;;;26.58;35.65;101765.91;5012908;28;20446;-83
2021/06/10 07:00:57;;;;;;;10.13;4.40;;;;;;;27.14;33.59;101757.78;4992224;28;20041;-86
2021/06/10 07:03:22;;;;;;;12.70;5.00;;;;;;;27.60;32.41;101774.66;4995776;28;20034;-78
2021/06/10 07:05:48;;;;;;;8.13;4.57;;;;;;;28.06;31.95;101763.81;4996322;28;20033;-81
2021/06/10 07:08:14;;;;;;;13.82;4.50;;;;;;;28.60;31.42;101783.19;5012577;28;20018;-81
2021/06/10 07:10:40;;;;;;;9.60;4.60;;;;;;;28.65;31.79;101779.88;4994727;28;20407;-78
2021/06/10 07:13:05;;;;;;;11.27;6.20;;;;;;;27.76;31.47;101774.59;5012272;28;20167;-79
2021/06/10 07:15:30;;;;;;;11.53;5.10;;;;;;;29.90;28.83;101779.41;5013099;28;20034;-81
2021/06/10 07:17:56;;;;;;;8.90;4.83;;;;;;;30.50;28.06;101781.00;4996157;28;20032;-83
2021/06/10 07:20:23;;;;;;;8.57;5.53;;;;;;;31.29;26.46;101782.84;5001686;28;20460;-82
2021/06/10 07:22:48;;;;;;;11.75;4.50;;;;;;;32.16;24.63;101777.84;5013068;28;20026;-80
2021/06/10 07:25:13;;;;;;;13.77;5.23;;;;;;;32.33;24.02;101776.41;4996354;28;20528;-83
2021/06/10 07:27:40;;;;;;;8.13;5.07;;;;;;;31.99;23.70;101789.31;5012640;28;20034;-85
2021/06/10 07:30:07;;;;;;;12.15;5.10;;;;;;;32.00;23.54;101799.34;5013793;28;20022;-82
2021/06/10 07:32:32;;;;;;;9.18;4.65;;;;;;;32.58;22.46;101793.41;5012704;28;20029;-81
2021/06/10 07:35:00;;;;;;;10.80;4.97;;;;;;;32.91;22.43;101801.81;5012892;28;20424;-84
2021/06/10 07:37:25;;;;;;;10.30;3.85;;;;;;;33.72;20.73;101795.19;5012710;28;20040;-81
2021/06/10 07:39:51;;;;;;;10.93;3.22;;;;;;;34.20;20.93;101785.59;4995790;28;20025;-79
2021/06/10 07:42:16;;;;;;;13.33;4.37;;;;;;;34.47;20.64;101800.25;5012573;28;20022;-88
2021/06/10 07:44:51;;;;;;;11.07;4.33;;;;;;;34.22;20.09;101802.97;4993354;28;20032;-82
2021/06/10 07:47:16;;;;;;;9.93;3.58;;;;;;;35.28;20.40;101795.84;5012215;28;20104;-81
2021/06/10 07:49:42;;;;;;;7.53;3.83;;;;;;;35.92;18.65;101795.63;5012265;28;20458;-85
2021/06/10 07:52:07;;;;;;;12.97;4.33;;;;;;;36.02;19.38;101804.31;5011595;28;20077;-85
2021/06/10 07:54:33;;;;;;;11.10;3.87;;;;;;;37.32;16.96;101788.91;5012112;28;20030;-85
2021/06/10 07:56:58;;;;;;;10.60;3.97;;;;;;;38.51;16.20;101791.25;5012692;28;20029;-86
2021/06/10 07:59:25;;;;;;;6.83;3.37;;;;;;;38.48;15.84;101797.38;4995771;28;20042;-86
2021/06/10 08:01:53;;;;;;;10.82;4.18;;;;;;;38.27;16.27;101795.22;5011260;28;20642;-82
2021/06/10 08:04:18;;;;;;;9.75;3.75;;;;;;;39.60;14.53;101788.34;5010824;28;20026;-80
2021/06/10 08:06:43;;;;;;;;;;;;;;;38.89;15.08;101798.13;5009919;28;20037;-81
2021/06/10 08:09:09;;;;;;;9.93;4.23;;;;;;;39.65;14.56;101791.22;4994808;28;19920;-81
2021/06/10 08:11:35;;;;;;;;;;;;;;;41.19;12.41;101791.88;5028434;28;20098;-89
2021/06/10 08:14:00;;;;;;;6.78;3.70;;;;;;;39.68;14.53;101791.53;4979901;28;19936;-87
2021/06/10 08:16:26;;;;;;;;;;;;;;;40.00;14.22;101801.28;5017211;28;20030;-94
2021/06/10 08:18:51;;;;;;;7.33;3.77;;;;;;;40.43;14.11;101791.97;5016635;28;20269;-91
2021/06/10 08:21:16;;;;;;;;;;;;;;;41.09;13.27;101796.56;5015191;28;20026;-86
2021/06/10 08:23:42;;;;;;;8.70;3.40;;;;;;;41.56;13.20;101798.63;5006390;28;19917;-86
2021/06/10 08:26:08;;;;;;;7.03;3.90;;;;;;;41.60;13.05;101799.78;5015962;28;20032;-82
2021/06/10 08:28:34;;;;;;;7.00;3.80;;;;;;;41.95;12.57;101804.75;5014688;28;20034;-82
2021/06/10 08:30:59;;;;;;;10.88;4.70;;;;;;;40.94;13.38;101802.91;5013910;28;20488;-81
2021/06/10 08:33:24;;;;;;;12.45;4.70;;;;;;;39.41;14.51;101802.69;5006354;28;20049;-80
2021/06/10 08:35:52;;;;;;;12.52;5.57;;;;;;;37.57;16.19;101808.28;4998330;28;20072;-82
2021/06/10 08:38:17;;;;;;;9.68;5.55;;;;;;;36.50;17.62;101809.09;4998352;28;20064;-80
2021/06/10 08:40:42;;;;;;;;;;;;;;;36.19;18.86;101808.22;4999854;28;20127;-91
2021/06/10 08:43:08;;;;;;;8.97;4.43;;;;;;;37.97;16.89;101806.63;5015430;28;20417;-84
2021/06/10 08:45:37;;;;;;;7.72;4.40;;;;;;;39.00;16.44;101798.34;5015682;28;20018;-93
2021/06/10 08:48:03;;;;;;;7.65;4.70;;;;;;;39.96;14.47;101795.31;5018052;28;20045;-95
2021/06/10 08:50:28;;;;;;;9.85;4.70;;;;;;;40.99;13.21;101795.34;5013273;28;20556;-94
2021/06/10 08:52:54;;;;;;;;;;;;;;;41.20;13.70;101795.56;5007567;28;20113;-79
2021/06/10 08:55:20;;;;;;;8.85;4.32;;;;;;;42.42;12.76;101791.72;5016655;28;20380;-95
2021/06/10 08:57:45;;;;;;;7.25;5.25;;;;;;;42.44;12.95;101790.28;5032477;28;20026;-86
2021/06/10 09:00:12;;;;;;;8.93;5.18;;;;;;;42.03;13.04;101781.69;4999413;28;20042;-86
2021/06/10 09:02:37;;;;;;;7.65;6.63;;;;;;;41.32;13.68;101795.34;4999298;28;20033;-88
2021/06/10 09:05:13;;;;;;;7.30;5.47;;;;;;;41.79;13.40;101791.72;5015093;28;20022;-90
2021/06/10 09:07:43;;;;;;;9.98;5.47;;;;;;;43.19;11.76;101784.13;5015530;28;20029;-85
2021/06/10 09:10:09;;;;;;;6.55;4.65;;;;;;;46.25;10.04;101779.38;5015165;28;20046;-92
2021/06/10 09:12:51;;;;;;;10.05;5.10;;;;;;;47.59;8.77;101784.53;5019077;28;20052;-96
2021/06/10 09:15:18;;;;;;;7.72;4.57;;;;;;;47.32;9.18;101788.16;5017790;28;20038;-96
2021/06/10 09:17:43;;;;;;;9.05;6.28;;;;;;;45.64;9.85;101778.19;5016071;28;20033;-95
2021/06/10 09:20:17;;;;;;;10.38;6.15;;;;;;;44.89;11.18;101785.16;5031890;28;20030;-83
2021/06/10 09:22:43;;;;;;;10.98;5.72;;;;;;;42.96;12.66;101787.53;5009821;28;20084;-93
2021/06/10 09:25:16;;;;;;;10.05;6.22;;;;;;;41.92;13.26;101782.75;5008224;28;20492;-83
2021/06/10 09:27:56;;;;;;;10.70;6.07;;;;;;;38.52;16.76;101780.88;5015311;28;20030;-93
2021/06/10 09:30:37;;;;;;;10.23;7.10;;;;;;;38.80;15.97;101768.75;5015588;28;20022;-80
2021/06/10 09:33:09;;;;;;;8.75;5.70;;;;;;;40.82;14.37;101776.88;5014926;28;20022;-80
2021/06/10 09:35:37;;;;;;;9.13;6.18;;;;;;;42.58;12.54;101776.47;5015206;28;20028;-87
2021/06/10 09:38:09;;;;;;;7.07;4.90;;;;;;;42.93;13.16;101765.50;4998318;28;20034;-83
2021/06/10 09:40:35;;;;;;;8.30;7.22;;;;;;;43.32;11.54;101776.25;5014728;28;20488;-89
2021/06/10 09:43:01;;;;;;;7.60;6.05;;;;;;;43.29;12.83;101767.19;5002000;28;20037;-94
2021/06/10 09:45:30;;;;;;;13.20;6.40;;;;;;;44.59;11.34;101754.19;4995097;28;20030;-84
2021/06/10 09:47:59;;;;;;;11.32;8.00;;;;;;;43.77;11.89;101765.94;4995120;28;20057;-86
2021/06/10 09:50:28;;;;;;;7.78;5.28;;;;;;;45.63;10.48;101773.66;5003057;28;20030;-80
2021/06/10 09:53:02;;;;;;;7.55;4.93;;;;;;;45.75;10.01;101767.56;5015090;28;20109;-79
2021/06/10 09:55:52;;;;;;;7.40;4.72;;;;;;;46.50;10.25;101769.66;5014578;28;20025;-85
2021/06/10 09:58:29;;;;;;;7.85;5.38;;;;;;;46.60;9.70;101771.47;5011617;28;20033;-85
2021/06/10 10:00:57;;;;;;;5.68;3.90;;;;;;;48.18;8.92;101756.19;5006576;28;20103;-84
2021/06/10 10:03:22;;;;;;;6.50;5.00;;;;;;;45.84;10.29;101762.91;5013454;28;20112;-79
2021/06/10 10:05:47;;;;;;;9.03;5.53;;;;;;;45.15;10.59;101762.22;4998635;28;20105;-82
2021/06/10 10:08:15;;;;;;;10.27;4.97;;;;;;;45.35;11.25;101753.53;5013466;28;20104;-86
2021/06/10 10:10:40;;;;;;;8.55;4.85;;;;;;;44.41;11.88;101767.91;5012219;28;20717;-78
2021/06/10 10:13:09;;;;;;;11.20;6.05;;;;;;;43.87;12.94;101763.91;5013570;28;20106;-80
2021/06/10 10:15:35;;;;;;;9.20;5.75;;;;;;;43.85;12.59;101760.53;5014450;28;20018;-81
2021/06/10 10:18:00;;;;;;;7.63;4.95;;;;;;;44.59;11.45;101762.72;5013553;28;20029;-82
2021/06/10 10:20:25;;;;;;;10.35;5.80;;;;;;;44.67;11.70;101756.38;5012130;28;20045;-82
2021/06/10 10:22:51;;;;;;;8.45;5.63;;;;;;;44.78;11.77;101762.81;5014131;28;20026;-81
2021/06/10 10:25:18;;;;;;;10.13;5.07;;;;;;;45.13;10.89;101747.50;5013103;28;20105;-81
2021/06/10 10:27:44;;;;;;;8.48;5.53;;;;;;;45.06;11.04;101749.84;5013177;28;20040;-79
2021/06/10 10:30:11;;;;;;;10.52;5.30;;;;;;;45.99;10.42;101761.88;5014066;28;20028;-83
2021/06/10 10:32:40;;;;;;;9.57;5.07;;;;;;;45.20;11.03;101759.34;5014736;28;20029;-85
2021/06/10 10:35:21;;;;;;;8.98;6.65;;;;;;;46.94;9.28;101770.38;5013293;28;20058;-79
2021/06/10 10:37:47;;;;;;;8.98;4.93;;;;;;;46.18;10.53;101762.72;5009285;28;20022;-83
2021/06/10 10:40:27;;;;;;;9.93;5.45;;;;;;;47.31;9.53;101760.88;5013268;28;20482;-81
2021/06/10 10:42:56;;;;;;;11.55;6.30;;;;;;;45.56;10.58;101758.94;5013691;28;20034;-81
2021/06/10 10:45:26;;;;;;;10.38;6.28;;;;;;;46.24;10.00;101759.81;5012979;28;20048;-82
2021/06/10 10:48:01;;;;;;;11.05;6.63;;;;;;;45.81;10.70;101748.47;5012346;28;20436;-84
2021/06/10 10:50:46;;;;;;;7.63;5.43;;;;;;;46.25;10.66;101755.81;4995216;28;20018;-80
2021/06/10 10:53:18;;;;;;;8.68;6.05;;;;;;;46.45;10.61;101751.84;4994813;28;20034;-86
2021/06/10 10:55:43;;;;;;;9.27;6.13;;;;;;;46.15;9.90;101754.81;5011144;28;20023;-85
2021/06/10 10:58:21;;;;;;;8.18;5.28;;;;;;;45.85;10.30;101749.53;5014149;28;20105;-86
2021/06/10 11:00:56;;;;;;;9.05;5.90;;;;;;;44.91;11.49;101751.69;5010338;28;20036;-85
2021/06/10 11:03:41;;;;;;;8.02;5.28;;;;;;;44.92;10.55;101752.53;5014142;28;20024;-80
2021/06/10 11:06:22;;;;;;;7.80;5.88;;;;;;;44.77;11.15;101744.94;5014353;28;20021;-84
2021/06/10 11:09:14;;;;;;;10.85;6.60;;;;;;;44.43;11.12;101745.81;5013863;28;20121;-85
2021/06/10 11:11:55;;;;;;;9.23;5.90;;;;;;;44.84;10.97;101747.47;5014583;28;20034;-83
2021/06/10 11:14:42;;;;;;;9.00;5.38;;;;;;;45.41;10.63;101748.63;5014560;28;20537;-80
2021/06/10 11:17:20;;;;;;;7.53;5.68;;;;;;;45.41;10.67;101742.13;5015239;28;20037;-84
2021/06/10 11:19:58;;;;;;;7.63;4.70;;;;;;;46.83;9.20;101738.44;5012728;28;20026;-83